createdAt,value
2022-07-26T00:00:12.490Z,1.30
2022-07-26T00:01:14.431Z,1.23
2022-07-26T00:02:18.580Z,1.50
2022-07-26T00:03:20.337Z,1.27
2022-07-26T00:04:22.968Z,1.42
2022-07-26T00:05:26.038Z,1.40
2022-07-26T00:06:29.147Z,1.58
2022-07-26T00:07:36.314Z,1.30
2022-07-26T00:08:39.650Z,1.55
2022-07-26T00:09:48.052Z,1.40
2022-07-26T00:10:50.545Z,1.70
2022-07-26T00:11:53.474Z,1.52
2022-07-26T00:12:55.071Z,1.55
2022-07-26T00:13:57.676Z,1.13
2022-07-26T00:14:59.665Z,1.40
2022-07-26T00:16:02.379Z,2.17
2022-07-26T00:17:05.030Z,1.25
2022-07-26T00:18:11.603Z,1.55
2022-07-26T00:19:14.498Z,1.48
2022-07-26T00:20:17.061Z,1.70
2022-07-26T00:21:20.107Z,2.08
2022-07-26T00:22:39.662Z,1.33
2022-07-26T00:23:41.395Z,1.55
2022-07-26T00:24:43.983Z,1.60
2022-07-26T00:25:45.826Z,1.45
2022-07-26T00:26:48.404Z,1.65
2022-07-26T00:27:50.066Z,1.35
2022-07-26T00:28:52.822Z,1.77
2022-07-26T00:29:54.406Z,1.70
2022-07-26T00:30:57.158Z,1.80
2022-07-26T00:31:58.927Z,1.10
2022-07-26T00:33:01.537Z,1.30
2022-07-26T00:34:04.155Z,1.95
2022-07-26T00:35:06.289Z,1.67
2022-07-26T00:36:09.741Z,1.50
2022-07-26T00:37:17.101Z,1.63
2022-07-26T00:38:22.606Z,1.25
2022-07-26T00:39:24.439Z,1.48
2022-07-26T00:40:27.583Z,1.70
2022-07-26T00:41:29.161Z,1.70
2022-07-26T00:42:31.778Z,1.52
2022-07-26T00:43:33.545Z,1.45
2022-07-26T00:44:38.844Z,1.52
2022-07-26T00:45:40.574Z,1.30
2022-07-26T00:46:43.529Z,1.75
2022-07-26T00:47:45.227Z,1.58
2022-07-26T00:48:47.861Z,1.10
2022-07-26T00:49:49.977Z,1.27
2022-07-26T00:51:00.595Z,1.55
2022-07-26T00:52:02.714Z,1.45
2022-07-26T00:53:06.857Z,1.60
2022-07-26T00:54:08.448Z,2.00
2022-07-26T00:55:12.523Z,1.30
2022-07-26T00:56:16.041Z,1.30
2022-07-26T00:57:19.698Z,1.42
2022-07-26T00:58:21.379Z,1.20
2022-07-26T00:59:24.162Z,1.40
2022-07-26T01:00:27.744Z,1.52
2022-07-26T01:01:30.406Z,1.63
2022-07-26T01:02:32.152Z,1.17
2022-07-26T01:03:36.613Z,1.45
2022-07-26T01:04:44.173Z,1.30
2022-07-26T01:05:47.033Z,1.30
2022-07-26T01:06:48.960Z,1.30
2022-07-26T01:07:51.708Z,1.52
2022-07-26T01:08:59.625Z,1.25
2022-07-26T01:10:02.866Z,1.30
2022-07-26T01:11:04.730Z,1.20
2022-07-26T01:12:07.957Z,1.17
2022-07-26T01:13:09.607Z,1.45
2022-07-26T01:14:12.914Z,1.88
2022-07-26T01:15:15.701Z,1.20
2022-07-26T01:16:18.485Z,2.10
2022-07-26T01:17:20.143Z,1.30
2022-07-26T01:18:22.715Z,1.38
2022-07-26T01:19:24.497Z,1.50
2022-07-26T01:20:27.144Z,1.45
2022-07-26T01:21:30.414Z,1.17
2022-07-26T01:22:33.209Z,1.27
2022-07-26T01:23:35.196Z,1.50
2022-07-26T01:24:38.040Z,1.30
2022-07-26T01:25:43.244Z,1.23
2022-07-26T01:26:46.605Z,1.27
2022-07-26T01:27:48.227Z,1.30
2022-07-26T01:28:51.609Z,1.67
2022-07-26T01:29:53.232Z,1.40
2022-07-26T01:30:55.900Z,1.55
2022-07-26T01:31:57.646Z,1.15
2022-07-26T01:33:00.240Z,1.30
2022-07-26T01:34:02.166Z,1.13
2022-07-26T01:35:05.598Z,1.67
2022-07-26T01:36:07.865Z,1.40
2022-07-26T01:37:12.423Z,1.67
2022-07-26T01:38:14.149Z,1.20
2022-07-26T01:39:17.025Z,1.23
2022-07-26T01:40:18.701Z,1.20
2022-07-26T01:41:37.532Z,1.13
2022-07-26T01:42:41.202Z,1.50
2022-07-26T01:43:43.014Z,1.20
2022-07-26T01:44:45.600Z,1.20
2022-07-26T01:45:47.543Z,1.23
2022-07-26T01:46:50.715Z,1.27
2022-07-26T01:47:52.348Z,1.65
2022-07-26T01:48:54.995Z,1.77
2022-07-26T01:49:56.610Z,1.38
2022-07-26T01:51:02.588Z,1.48
2022-07-26T01:52:04.641Z,1.35
2022-07-26T01:53:08.650Z,1.00
2022-07-26T01:54:11.973Z,1.10
2022-07-26T01:55:14.823Z,1.15
2022-07-26T01:56:16.467Z,1.42
2022-07-26T01:57:19.144Z,1.85
2022-07-26T01:58:23.790Z,1.30
2022-07-26T01:59:26.397Z,1.20
2022-07-26T02:00:29.061Z,1.80
2022-07-26T02:01:39.519Z,1.48
2022-07-26T02:02:41.742Z,1.92
2022-07-26T02:03:44.905Z,1.40
2022-07-26T02:04:58.815Z,1.35
2022-07-26T02:06:01.491Z,1.30
2022-07-26T02:07:05.360Z,1.50
2022-07-26T02:08:09.690Z,1.48
2022-07-26T02:09:15.427Z,1.60
2022-07-26T02:10:18.306Z,1.08
2022-07-26T02:11:20.436Z,1.27
2022-07-26T02:12:23.108Z,1.27
2022-07-26T02:13:24.801Z,1.75
2022-07-26T02:14:28.117Z,1.30
2022-07-26T02:15:30.015Z,1.35
2022-07-26T02:16:32.758Z,1.38
2022-07-26T02:17:34.624Z,1.20
2022-07-26T02:18:38.301Z,1.40
2022-07-26T02:19:40.061Z,1.25
2022-07-26T02:20:42.685Z,1.38
2022-07-26T02:21:44.315Z,1.25
2022-07-26T02:22:46.897Z,1.20
2022-07-26T02:23:50.039Z,1.20
2022-07-26T02:24:53.119Z,1.50
2022-07-26T02:25:55.504Z,1.33
2022-07-26T02:27:00.010Z,0.95
2022-07-26T02:28:01.851Z,1.30
2022-07-26T02:29:04.487Z,1.40
2022-07-26T02:30:07.095Z,1.30
2022-07-26T02:31:10.105Z,1.42
2022-07-26T02:32:13.482Z,1.52
2022-07-26T02:33:16.517Z,1.40
2022-07-26T02:34:18.212Z,1.20
2022-07-26T02:35:20.973Z,1.45
2022-07-26T02:36:22.583Z,1.65
2022-07-26T02:37:25.475Z,1.23
2022-07-26T02:38:28.054Z,1.20
2022-07-26T02:39:31.059Z,1.30
2022-07-26T02:40:34.102Z,1.25
2022-07-26T02:41:35.784Z,1.60
2022-07-26T02:42:38.392Z,1.50
2022-07-26T02:43:40.125Z,1.50
2022-07-26T02:44:42.741Z,1.63
2022-07-26T02:45:44.381Z,1.60
2022-07-26T02:47:03.976Z,2.10
2022-07-26T02:48:06.573Z,1.40
2022-07-26T02:49:09.959Z,1.75
2022-07-26T02:50:11.966Z,1.88
2022-07-26T02:51:14.628Z,1.90
2022-07-26T02:52:16.270Z,1.80
2022-07-26T02:53:18.842Z,1.80
2022-07-26T02:54:20.497Z,1.75
2022-07-26T02:55:25.975Z,1.70
2022-07-26T02:56:27.708Z,2.08
2022-07-26T02:57:30.263Z,1.92
2022-07-26T02:58:48.311Z,1.60
2022-07-26T02:59:50.934Z,1.52
2022-07-26T03:00:52.659Z,1.85
2022-07-26T03:01:55.318Z,1.63
2022-07-26T03:02:57.683Z,1.60
2022-07-26T03:04:00.406Z,1.60
2022-07-26T03:05:02.673Z,1.83
2022-07-26T03:06:05.250Z,1.83
2022-07-26T03:07:07.027Z,1.90
2022-07-26T03:08:09.816Z,2.33
2022-07-26T03:09:11.727Z,2.10
2022-07-26T03:10:14.471Z,2.03
2022-07-26T03:11:17.445Z,1.70
2022-07-26T03:12:20.050Z,1.90
2022-07-26T03:13:21.685Z,1.60
2022-07-26T03:14:24.277Z,1.98
2022-07-26T03:15:25.994Z,1.80
2022-07-26T03:16:29.742Z,1.73
2022-07-26T03:17:32.092Z,1.88
2022-07-26T03:18:34.908Z,2.15
2022-07-26T03:19:36.531Z,1.77
2022-07-26T03:20:39.161Z,2.10
2022-07-26T03:21:40.761Z,2.33
2022-07-26T03:22:43.850Z,1.75
2022-07-26T03:23:45.527Z,1.90
2022-07-26T03:24:48.126Z,2.65
2022-07-26T03:25:49.829Z,2.05
2022-07-26T03:26:53.773Z,2.03
2022-07-26T03:27:57.032Z,2.10
2022-07-26T03:29:00.519Z,1.60
2022-07-26T03:30:02.269Z,1.75
2022-07-26T03:31:04.941Z,1.83
2022-07-26T03:32:07.072Z,1.95
2022-07-26T03:33:09.829Z,2.10
2022-07-26T03:34:12.112Z,1.90
2022-07-26T03:35:14.683Z,2.38
2022-07-26T03:36:17.761Z,1.60
2022-07-26T03:37:19.497Z,1.67
2022-07-26T03:38:22.209Z,2.20
2022-07-26T03:39:25.410Z,1.73
2022-07-26T03:40:29.041Z,2.30
2022-07-26T03:41:31.692Z,2.60
2022-07-26T03:42:35.917Z,2.15
2022-07-26T03:43:37.567Z,1.75
2022-07-26T03:44:40.162Z,1.95
2022-07-26T03:45:42.359Z,1.70
2022-07-26T03:46:44.988Z,1.92
2022-07-26T03:47:46.601Z,2.80
2022-07-26T03:48:49.185Z,1.95
2022-07-26T03:49:51.073Z,2.40
2022-07-26T03:50:53.766Z,2.28
2022-07-26T03:51:55.545Z,1.88
2022-07-26T03:52:58.193Z,2.70
2022-07-26T03:53:59.882Z,2.38
2022-07-26T03:55:22.464Z,2.30
2022-07-26T03:56:31.679Z,2.00
2022-07-26T03:57:34.667Z,1.98
2022-07-26T03:58:36.287Z,2.00
2022-07-26T03:59:39.983Z,2.17
2022-07-26T04:00:42.921Z,2.20
2022-07-26T04:01:46.587Z,2.30
2022-07-26T04:02:48.345Z,2.33
2022-07-26T04:03:50.981Z,2.08
2022-07-26T04:04:52.829Z,2.80
2022-07-26T04:05:56.069Z,3.10
2022-07-26T04:06:57.807Z,2.20
2022-07-26T04:08:06.312Z,2.30
2022-07-26T04:09:09.143Z,2.15
2022-07-26T04:10:11.667Z,1.70
2022-07-26T04:11:14.425Z,2.40
2022-07-26T04:12:16.103Z,2.30
2022-07-26T04:13:24.302Z,2.28
2022-07-26T04:14:25.947Z,1.98
2022-07-26T04:15:28.570Z,2.40
2022-07-26T04:16:33.509Z,2.25
2022-07-26T04:17:38.638Z,2.78
2022-07-26T04:18:42.407Z,1.95
2022-07-26T04:19:44.054Z,1.85
2022-07-26T04:20:46.684Z,2.20
2022-07-26T04:21:48.268Z,2.15
2022-07-26T04:22:50.912Z,2.42
2022-07-26T04:23:52.767Z,2.53
2022-07-26T04:24:55.490Z,2.55
2022-07-26T04:25:57.090Z,1.95
2022-07-26T04:26:59.681Z,2.17
2022-07-26T04:28:01.300Z,2.25
2022-07-26T04:29:05.292Z,2.40
2022-07-26T04:30:14.733Z,2.17
2022-07-26T04:31:18.413Z,2.45
2022-07-26T04:32:20.050Z,4.05
2022-07-26T04:33:22.692Z,2.17
2022-07-26T04:34:25.266Z,2.00
2022-07-26T04:35:26.893Z,2.40
2022-07-26T04:36:29.470Z,2.28
2022-07-26T04:37:32.951Z,2.05
2022-07-26T04:38:35.574Z,2.33
2022-07-26T04:39:37.236Z,1.90
2022-07-26T04:40:41.057Z,2.25
2022-07-26T04:41:43.736Z,3.42
2022-07-26T04:42:45.554Z,2.28
2022-07-26T04:43:48.097Z,2.20
2022-07-26T04:44:51.078Z,2.20
2022-07-26T04:45:53.977Z,3.22
2022-07-26T04:46:55.612Z,2.38
2022-07-26T04:47:59.479Z,2.55
2022-07-26T04:49:01.151Z,2.45
2022-07-26T04:50:04.060Z,2.72
2022-07-26T04:51:06.011Z,2.30
2022-07-26T04:52:08.699Z,2.67
2022-07-26T04:53:11.362Z,3.58
2022-07-26T04:54:15.566Z,2.38
2022-07-26T04:55:18.155Z,2.35
2022-07-26T04:56:20.738Z,2.45
2022-07-26T04:57:22.364Z,2.22
2022-07-26T04:58:25.031Z,2.42
2022-07-26T04:59:26.608Z,2.50
2022-07-26T05:00:30.562Z,2.22
2022-07-26T05:01:32.243Z,2.40
2022-07-26T05:02:35.011Z,2.42
2022-07-26T05:03:37.665Z,3.38
2022-07-26T05:04:39.250Z,2.47
2022-07-26T05:05:41.920Z,2.00
2022-07-26T05:06:43.570Z,2.42
2022-07-26T05:07:47.898Z,2.55
2022-07-26T05:08:50.707Z,2.13
2022-07-26T05:09:52.350Z,2.70
2022-07-26T05:10:56.021Z,2.80
2022-07-26T05:11:57.746Z,2.60
2022-07-26T05:13:00.377Z,2.65
2022-07-26T05:14:01.994Z,2.75
2022-07-26T05:15:05.601Z,2.75
2022-07-26T05:16:17.480Z,2.92
2022-07-26T05:17:19.506Z,2.92
2022-07-26T05:18:23.295Z,2.70
2022-07-26T05:19:25.109Z,3.05
2022-07-26T05:20:27.665Z,2.38
2022-07-26T05:21:29.342Z,2.38
2022-07-26T05:22:31.890Z,2.45
2022-07-26T05:23:33.493Z,2.83
2022-07-26T05:24:36.048Z,2.40
2022-07-26T05:25:38.643Z,3.08
2022-07-26T05:26:41.328Z,2.22
2022-07-26T05:27:42.949Z,2.78
2022-07-26T05:28:45.566Z,2.42
2022-07-26T05:29:48.198Z,2.30
2022-07-26T05:30:51.216Z,2.55
2022-07-26T05:31:54.228Z,2.83
2022-07-26T05:32:56.936Z,3.10
2022-07-26T05:33:58.535Z,2.15
2022-07-26T05:35:01.207Z,1.85
2022-07-26T05:36:02.855Z,2.47
2022-07-26T05:37:05.468Z,2.45
2022-07-26T05:38:08.064Z,2.47
2022-07-26T05:39:15.677Z,2.58
2022-07-26T05:40:18.654Z,2.58
2022-07-26T05:41:20.287Z,2.42
2022-07-26T05:42:23.036Z,3.00
2022-07-26T05:43:25.957Z,2.67
2022-07-26T05:44:28.527Z,2.38
2022-07-26T05:45:33.230Z,3.30
2022-07-26T05:46:40.550Z,2.40
2022-07-26T05:47:44.638Z,2.45
2022-07-26T05:48:46.337Z,2.40
2022-07-26T05:49:48.990Z,2.85
2022-07-26T05:50:50.616Z,2.28
2022-07-26T05:51:55.921Z,2.97
2022-07-26T05:53:02.177Z,2.17
2022-07-26T05:54:04.302Z,2.13
2022-07-26T05:55:08.587Z,2.30
2022-07-26T05:56:10.433Z,2.60
2022-07-26T05:57:16.117Z,2.95
2022-07-26T05:58:17.707Z,2.35
2022-07-26T05:59:20.399Z,2.55
2022-07-26T06:00:22.078Z,2.25
2022-07-26T06:01:24.700Z,2.45
2022-07-26T06:02:26.483Z,2.50
2022-07-26T06:03:31.956Z,2.50
2022-07-26T06:04:33.963Z,2.15
2022-07-26T06:05:36.607Z,2.45
2022-07-26T06:06:38.199Z,2.95
2022-07-26T06:07:40.753Z,2.63
2022-07-26T06:08:42.402Z,2.50
2022-07-26T06:09:45.260Z,2.60
2022-07-26T06:10:47.123Z,2.63
2022-07-26T06:11:49.676Z,2.55
2022-07-26T06:12:51.340Z,2.50
2022-07-26T06:13:56.672Z,2.85
2022-07-26T06:14:59.405Z,2.95
2022-07-26T06:16:01.144Z,2.70
2022-07-26T06:17:04.765Z,2.72
2022-07-26T06:18:07.594Z,2.60
2022-07-26T06:19:11.947Z,2.92
2022-07-26T06:20:13.630Z,2.72
2022-07-26T06:21:16.229Z,2.70
2022-07-26T06:22:17.795Z,2.63
2022-07-26T06:23:33.770Z,3.33
2022-07-26T06:24:37.460Z,3.28
2022-07-26T06:25:39.278Z,2.78
2022-07-26T06:26:41.963Z,3.13
2022-07-26T06:27:43.563Z,2.65
2022-07-26T06:28:46.223Z,2.67
2022-07-26T06:29:48.511Z,2.70
2022-07-26T06:30:51.186Z,3.00
2022-07-26T06:31:53.830Z,2.28
2022-07-26T06:32:55.520Z,3.05
2022-07-26T06:33:58.112Z,2.42
2022-07-26T06:35:01.137Z,3.13
2022-07-26T06:36:03.758Z,3.47
2022-07-26T06:37:05.380Z,2.88
2022-07-26T06:38:08.198Z,3.08
2022-07-26T06:39:09.919Z,3.03
2022-07-26T06:40:13.230Z,3.05
2022-07-26T06:41:14.952Z,3.30
2022-07-26T06:42:17.505Z,2.80
2022-07-26T06:43:19.114Z,3.05
2022-07-26T06:44:22.828Z,3.13
2022-07-26T06:45:24.472Z,3.67
2022-07-26T06:46:27.419Z,2.92
2022-07-26T06:47:29.270Z,3.28
2022-07-26T06:48:31.873Z,3.30
2022-07-26T06:49:34.526Z,3.72
2022-07-26T06:50:38.550Z,3.20
2022-07-26T06:51:41.105Z,4.00
2022-07-26T06:52:43.669Z,3.22
2022-07-26T06:53:49.673Z,3.10
2022-07-26T06:54:52.623Z,3.60
2022-07-26T06:55:55.405Z,3.70
2022-07-26T06:56:57.967Z,4.00
2022-07-26T06:57:59.574Z,3.70
2022-07-26T06:59:06.259Z,4.32
2022-07-26T07:00:12.187Z,3.50
2022-07-26T07:01:55.228Z,4.95
2022-07-26T07:02:37.947Z,3.78
2022-07-26T07:03:40.676Z,3.65
2022-07-26T07:04:43.346Z,4.50
2022-07-26T07:05:49.963Z,3.58
2022-07-26T07:06:53.239Z,3.53
2022-07-26T07:07:56.147Z,3.58
2022-07-26T07:08:59.907Z,3.08
2022-07-26T07:10:01.665Z,3.67
2022-07-26T07:11:04.430Z,4.10
2022-07-26T07:12:10.227Z,3.47
2022-07-26T07:13:13.441Z,3.30
2022-07-26T07:14:15.124Z,4.25
2022-07-26T07:15:17.778Z,4.28
2022-07-26T07:16:20.517Z,3.20
2022-07-26T07:17:22.521Z,3.22
2022-07-26T07:18:25.095Z,3.97
2022-07-26T07:19:27.258Z,3.63
2022-07-26T07:20:29.874Z,3.95
2022-07-26T07:21:33.826Z,3.50
2022-07-26T07:22:36.470Z,3.35
2022-07-26T07:23:38.108Z,3.50
2022-07-26T07:24:41.318Z,3.78
2022-07-26T07:25:44.662Z,3.22
2022-07-26T07:26:47.551Z,3.53
2022-07-26T07:27:50.139Z,2.78
2022-07-26T07:28:52.881Z,3.20
2022-07-26T07:29:56.877Z,3.30
2022-07-26T07:31:00.248Z,3.75
2022-07-26T07:32:03.406Z,3.45
2022-07-26T07:33:06.276Z,2.60
2022-07-26T07:34:08.215Z,3.28
2022-07-26T07:35:12.988Z,3.17
2022-07-26T07:36:15.823Z,3.30
2022-07-26T07:37:19.964Z,3.30
2022-07-26T07:38:22.980Z,2.03
2022-07-26T07:39:27.270Z,3.72
2022-07-26T07:40:41.004Z,3.97
2022-07-26T07:41:42.836Z,3.13
2022-07-26T07:42:45.429Z,3.13
2022-07-26T07:43:47.111Z,3.72
2022-07-26T07:44:50.068Z,3.53
2022-07-26T07:45:51.887Z,3.42
2022-07-26T07:46:54.546Z,2.95
2022-07-26T07:47:57.189Z,3.28
2022-07-26T07:48:59.518Z,3.15
2022-07-26T07:50:02.786Z,3.70
2022-07-26T07:51:04.645Z,3.35
2022-07-26T07:52:07.870Z,3.03
2022-07-26T07:53:12.171Z,3.50
2022-07-26T07:54:15.897Z,3.15
2022-07-26T07:55:28.630Z,2.85
2022-07-26T07:56:41.863Z,2.95
2022-07-26T07:57:45.140Z,3.15
2022-07-26T07:58:49.094Z,3.20
2022-07-26T07:59:53.896Z,3.17
2022-07-26T08:00:56.599Z,3.30
2022-07-26T08:01:58.863Z,3.58
2022-07-26T08:03:01.531Z,3.10
2022-07-26T08:04:03.270Z,3.17
2022-07-26T08:05:13.937Z,2.67
2022-07-26T08:06:18.126Z,3.00
2022-07-26T08:07:20.796Z,2.60
2022-07-26T08:08:23.777Z,3.03
2022-07-26T08:09:28.737Z,3.38
2022-07-26T08:10:31.862Z,3.35
2022-07-26T08:11:34.346Z,3.10
2022-07-26T08:12:37.435Z,3.00
2022-07-26T08:13:39.207Z,2.88
2022-07-26T08:14:41.901Z,3.28
2022-07-26T08:15:43.700Z,2.92
2022-07-26T08:16:46.992Z,3.05
2022-07-26T08:17:54.052Z,2.97
2022-07-26T08:18:58.542Z,3.00
2022-07-26T08:20:00.447Z,3.15
2022-07-26T08:21:04.331Z,2.90
2022-07-26T08:22:08.266Z,4.03
2022-07-26T08:23:10.070Z,3.05
2022-07-26T08:24:14.077Z,3.70
2022-07-26T08:25:15.816Z,3.10
2022-07-26T08:26:18.537Z,3.20
2022-07-26T08:27:20.180Z,3.28
2022-07-26T08:28:45.106Z,3.08
2022-07-26T08:29:45.358Z,2.72
2022-07-26T08:30:47.022Z,3.15
2022-07-26T08:31:50.807Z,3.28
2022-07-26T08:32:52.502Z,3.10
2022-07-26T08:33:55.157Z,2.83
2022-07-26T08:35:17.835Z,3.15
2022-07-26T08:36:20.347Z,2.90
2022-07-26T08:37:22.013Z,2.95
2022-07-26T08:38:24.817Z,2.63
2022-07-26T08:39:28.736Z,3.30
2022-07-26T08:40:31.331Z,2.70
2022-07-26T08:41:33.965Z,2.40
2022-07-26T08:42:35.596Z,2.65
2022-07-26T08:43:52.054Z,2.47
2022-07-26T08:44:55.916Z,2.13
2022-07-26T08:46:01.400Z,2.60
2022-07-26T08:47:04.478Z,2.50
2022-07-26T08:48:17.216Z,2.40
2022-07-26T08:49:20.979Z,2.65
2022-07-26T08:50:22.925Z,1.90
2022-07-26T08:51:26.301Z,2.00
2022-07-26T08:52:29.416Z,1.60
2022-07-26T08:53:32.427Z,1.60
2022-07-26T08:54:43.945Z,1.52
2022-07-26T08:57:09.120Z,2.45
2022-07-26T08:58:12.020Z,1.80
2022-07-26T08:59:21.243Z,1.77
2022-07-26T09:00:26.220Z,2.15
2022-07-26T09:01:28.909Z,2.05
2022-07-26T09:02:40.500Z,2.35
2022-07-26T09:03:44.041Z,2.17
2022-07-26T09:04:46.733Z,2.05
2022-07-26T09:05:48.370Z,1.92
2022-07-26T09:07:03.440Z,2.45
2022-07-26T09:08:26.151Z,1.90
2022-07-26T09:09:28.183Z,1.80
2022-07-26T09:10:39.033Z,1.73
2022-07-26T09:11:41.079Z,1.83
2022-07-26T09:12:44.516Z,2.05
2022-07-26T09:13:53.599Z,2.15
2022-07-26T09:14:57.128Z,1.80
2022-07-26T09:16:12.660Z,2.10
2022-07-26T09:17:15.467Z,2.10
2022-07-26T09:18:28.572Z,2.30
2022-07-26T09:19:30.210Z,2.13
2022-07-26T09:20:33.953Z,2.55
2022-07-26T09:21:36.739Z,2.17
2022-07-26T09:22:40.708Z,2.08
2022-07-26T09:23:42.376Z,2.47
2022-07-26T09:24:46.692Z,2.00
2022-07-26T09:25:50.649Z,2.28
2022-07-26T09:26:55.919Z,2.30
2022-07-26T09:27:59.457Z,1.88
2022-07-26T09:29:06.902Z,2.00
2022-07-26T09:30:11.287Z,1.90
2022-07-26T09:31:13.045Z,2.30
2022-07-26T09:32:20.382Z,1.80
2022-07-26T09:33:22.156Z,1.90
2022-07-26T09:34:25.931Z,2.33
2022-07-26T09:35:50.504Z,1.80
2022-07-26T09:36:52.726Z,2.00
2022-07-26T09:37:55.430Z,2.08
2022-07-26T09:38:59.512Z,1.70
2022-07-26T09:40:04.103Z,1.65
2022-07-26T09:41:20.585Z,1.92
2022-07-26T09:42:29.021Z,1.88
2022-07-26T09:43:37.793Z,1.83
2022-07-26T09:44:41.050Z,1.60
2022-07-26T09:46:03.810Z,1.95
2022-07-26T09:47:05.679Z,1.77
2022-07-26T09:48:12.106Z,1.80
2022-07-26T09:49:18.083Z,1.48
2022-07-26T09:50:21.609Z,1.67
2022-07-26T09:51:37.781Z,1.63
2022-07-26T09:52:39.538Z,1.15
2022-07-26T09:53:43.092Z,1.35
2022-07-26T09:54:46.736Z,1.40
2022-07-26T09:55:57.339Z,1.50
2022-07-26T09:57:01.473Z,1.30
2022-07-26T09:58:07.281Z,1.50
2022-07-26T09:59:09.539Z,1.60
2022-07-26T10:00:13.654Z,1.75
2022-07-26T10:01:16.352Z,1.50
2022-07-26T10:02:20.731Z,1.70
2022-07-26T10:03:22.818Z,1.40
2022-07-26T10:04:26.607Z,1.60
2022-07-26T10:05:28.622Z,1.90
2022-07-26T10:06:31.211Z,1.75
2022-07-26T10:07:33.882Z,1.65
2022-07-26T10:08:35.736Z,1.48
2022-07-26T10:09:44.318Z,1.55
2022-07-26T10:10:49.395Z,1.77
2022-07-26T10:11:56.398Z,1.85
2022-07-26T10:13:02.968Z,1.40
2022-07-26T10:14:41.224Z,1.70
2022-07-26T10:15:46.762Z,2.00
2022-07-26T10:16:49.045Z,2.00
2022-07-26T10:17:52.078Z,2.00
2022-07-26T10:18:57.841Z,1.77
2022-07-26T10:20:01.636Z,1.80
2022-07-26T10:21:19.232Z,1.45
2022-07-26T10:22:24.337Z,0.80
2022-07-26T10:23:40.848Z,0.70
2022-07-26T10:24:43.388Z,0.93
2022-07-26T10:25:47.658Z,0.57
2022-07-26T10:26:50.314Z,0.60
2022-07-26T10:27:53.573Z,0.75
2022-07-26T10:28:57.721Z,1.05
2022-07-26T10:30:31.538Z,0.70
2022-07-26T10:31:36.192Z,0.60
2022-07-26T10:32:37.970Z,0.60
2022-07-26T10:33:43.578Z,0.70
2022-07-26T10:34:46.373Z,0.50
2022-07-26T10:35:48.060Z,0.60
2022-07-26T10:36:58.607Z,0.98
2022-07-26T10:38:03.088Z,0.77
2022-07-26T10:39:11.175Z,0.80
2022-07-26T10:40:22.531Z,0.90
2022-07-26T10:41:31.258Z,0.68
2022-07-26T10:42:44.554Z,0.80
2022-07-26T10:44:12.525Z,0.60
2022-07-26T10:45:20.975Z,1.00
2022-07-26T10:46:24.968Z,0.80
2022-07-26T10:47:32.022Z,0.73
2022-07-26T10:48:56.541Z,0.90
2022-07-26T10:50:00.107Z,0.80
2022-07-26T10:51:06.227Z,0.88
2022-07-26T10:52:13.938Z,0.90
2022-07-26T10:53:21.267Z,0.73
2022-07-26T10:54:23.174Z,0.93
2022-07-26T10:55:26.080Z,0.95
2022-07-26T10:56:33.116Z,1.10
2022-07-26T10:57:37.946Z,1.10
2022-07-26T10:58:43.632Z,0.90
2022-07-26T10:59:55.920Z,0.98
2022-07-26T11:01:00.904Z,0.80
2022-07-26T11:02:02.592Z,1.15
2022-07-26T11:03:05.578Z,1.00
2022-07-26T11:04:08.441Z,0.80
2022-07-26T11:05:15.643Z,0.80
2022-07-26T11:06:19.595Z,0.93
2022-07-26T11:07:21.211Z,0.98
2022-07-26T11:08:30.488Z,1.05
2022-07-26T11:09:33.960Z,1.30
2022-07-26T11:10:39.249Z,0.90
2022-07-26T11:11:46.950Z,1.00
2022-07-26T11:12:50.180Z,1.20
2022-07-26T11:13:52.817Z,1.40
2022-07-26T11:14:55.975Z,1.25
2022-07-26T11:16:01.577Z,1.30
2022-07-26T11:17:03.303Z,1.30
2022-07-26T11:18:15.221Z,1.50
2022-07-26T11:19:19.362Z,1.15
2022-07-26T11:20:29.244Z,1.40
2022-07-26T11:21:32.467Z,1.25
2022-07-26T11:22:35.307Z,1.17
2022-07-26T11:23:39.528Z,1.30
2022-07-26T11:24:41.204Z,1.10
2022-07-26T11:25:43.848Z,1.10
2022-07-26T11:26:48.072Z,1.25
2022-07-26T11:28:08.444Z,1.42
2022-07-26T11:29:14.280Z,1.70
2022-07-26T11:30:20.912Z,1.10
2022-07-26T11:31:49.507Z,1.30
2022-07-26T11:32:53.622Z,1.02
2022-07-26T11:33:55.887Z,1.30
2022-07-26T11:34:58.990Z,1.10
2022-07-26T11:36:00.612Z,1.10
2022-07-26T11:37:05.814Z,1.33
2022-07-26T11:38:12.223Z,1.30
2022-07-26T11:39:16.119Z,1.17
2022-07-26T11:40:17.966Z,1.10
2022-07-26T11:41:21.251Z,1.17
2022-07-26T11:42:37.313Z,1.02
2022-07-26T11:43:39.247Z,1.45
2022-07-26T11:44:44.418Z,1.33
2022-07-26T11:45:52.981Z,1.42
2022-07-26T11:46:57.639Z,1.58
2022-07-26T11:47:59.409Z,1.38
2022-07-26T11:49:02.576Z,1.30
2022-07-26T11:50:16.439Z,1.77
2022-07-26T11:51:26.568Z,1.40
2022-07-26T11:52:29.483Z,1.88
2022-07-26T11:53:37.248Z,1.65
2022-07-26T11:54:44.834Z,1.20
2022-07-26T11:55:47.967Z,2.17
2022-07-26T11:56:52.889Z,1.70
2022-07-26T11:57:54.889Z,1.70
2022-07-26T11:58:58.535Z,1.55
2022-07-26T12:00:01.706Z,1.40
2022-07-26T12:01:04.963Z,1.70
2022-07-26T12:02:08.690Z,1.75
2022-07-26T12:03:11.480Z,1.80
2022-07-26T12:04:20.080Z,1.60
2022-07-26T12:05:24.180Z,1.40
2022-07-26T12:06:28.940Z,1.48
2022-07-26T12:07:31.273Z,1.50
2022-07-26T12:08:41.923Z,1.20
2022-07-26T12:09:49.445Z,1.48
2022-07-26T12:10:54.802Z,1.15
2022-07-26T12:11:57.417Z,1.50
2022-07-26T12:13:13.964Z,1.30
2022-07-26T12:14:25.307Z,1.20
2022-07-26T12:15:28.096Z,1.05
2022-07-26T12:16:43.666Z,1.13
2022-07-26T12:17:59.563Z,1.10
2022-07-26T12:19:01.209Z,1.15
2022-07-26T12:20:15.236Z,0.93
2022-07-26T12:21:19.059Z,0.90
2022-07-26T12:22:23.861Z,0.93
2022-07-26T12:23:25.474Z,0.90
2022-07-26T12:24:45.997Z,1.20
2022-07-26T12:25:49.367Z,1.10
2022-07-26T12:27:05.691Z,0.98
2022-07-26T12:28:08.265Z,0.98
2022-07-26T12:29:25.565Z,0.98
2022-07-26T12:30:30.967Z,1.05
2022-07-26T12:31:34.002Z,1.05
2022-07-26T12:32:39.170Z,1.02
2022-07-26T12:33:47.953Z,1.02
2022-07-26T12:35:01.732Z,1.20
2022-07-26T12:36:17.706Z,0.90
2022-07-26T12:37:40.007Z,0.85
2022-07-26T12:38:44.011Z,1.45
2022-07-26T12:40:06.633Z,0.80
2022-07-26T12:41:08.267Z,1.02
2022-07-26T12:42:33.463Z,0.82
2022-07-26T12:43:40.291Z,1.25
2022-07-26T12:44:41.960Z,1.40
2022-07-26T12:45:44.601Z,1.02
2022-07-26T12:46:46.487Z,1.08
2022-07-26T12:47:52.291Z,1.48
2022-07-26T12:48:59.640Z,1.42
2022-07-26T12:50:03.851Z,1.13
2022-07-26T12:51:05.751Z,1.20
2022-07-26T12:52:08.583Z,1.10
2022-07-26T12:53:13.947Z,1.00
2022-07-26T12:54:15.806Z,0.80
2022-07-26T12:55:21.426Z,0.90
2022-07-26T12:56:23.062Z,0.80
2022-07-26T12:57:25.690Z,0.93
2022-07-26T12:58:27.470Z,0.77
2022-07-26T12:59:30.248Z,1.15
2022-07-26T13:00:32.976Z,0.75
2022-07-26T13:01:34.665Z,0.88
2022-07-26T13:02:38.287Z,1.30
2022-07-26T13:03:41.480Z,1.38
2022-07-26T13:04:44.101Z,0.93
2022-07-26T13:05:46.820Z,0.80
2022-07-26T13:06:48.984Z,0.90
2022-07-26T13:07:52.359Z,0.80
2022-07-26T13:08:54.090Z,2.03
2022-07-26T13:10:29.973Z,0.98
2022-07-26T13:11:19.526Z,1.40
2022-07-26T13:12:22.217Z,1.17
2022-07-26T13:13:23.807Z,0.85
2022-07-26T13:14:26.394Z,1.10
2022-07-26T13:15:37.111Z,0.90
2022-07-26T13:16:39.461Z,1.17
2022-07-26T13:17:51.646Z,1.00
2022-07-26T13:18:54.601Z,1.10
2022-07-26T13:19:57.219Z,1.40
2022-07-26T13:20:58.825Z,1.20
2022-07-26T13:22:02.281Z,1.27
2022-07-26T13:23:03.971Z,1.13
2022-07-26T13:24:08.700Z,1.20
2022-07-26T13:25:12.689Z,1.30
2022-07-26T13:26:14.745Z,1.13
2022-07-26T13:27:17.804Z,0.93
2022-07-26T13:28:19.395Z,1.00
2022-07-26T13:29:22.223Z,1.10
2022-07-26T13:30:23.923Z,1.08
2022-07-26T13:31:26.679Z,1.17
2022-07-26T13:32:28.363Z,1.10
2022-07-26T13:33:31.000Z,1.02
2022-07-26T13:34:35.584Z,1.20
2022-07-26T13:35:39.175Z,1.10
2022-07-26T13:36:43.758Z,1.10
2022-07-26T13:37:45.342Z,1.38
2022-07-26T13:38:47.896Z,1.30
2022-07-26T13:39:50.470Z,1.20
2022-07-26T13:40:52.966Z,1.23
2022-07-26T13:41:56.091Z,1.00
2022-07-26T13:42:57.723Z,1.30
2022-07-26T13:44:00.412Z,1.20
2022-07-26T13:45:03.006Z,1.40
2022-07-26T13:46:04.829Z,1.23
2022-07-26T13:47:07.716Z,1.50
2022-07-26T13:48:09.484Z,1.30
2022-07-26T13:49:12.524Z,1.40
2022-07-26T13:50:15.565Z,1.30
2022-07-26T13:51:18.321Z,1.52
2022-07-26T13:52:19.911Z,1.05
2022-07-26T13:53:22.526Z,1.45
2022-07-26T13:54:27.039Z,1.35
2022-07-26T13:55:28.623Z,1.60
2022-07-26T13:56:31.157Z,1.27
2022-07-26T13:57:53.122Z,1.25
2022-07-26T13:58:56.226Z,1.33
2022-07-26T13:59:57.845Z,1.08
2022-07-26T14:01:00.602Z,1.17
2022-07-26T14:02:04.782Z,1.20
2022-07-26T14:03:06.857Z,1.70
2022-07-26T14:04:12.806Z,1.23
2022-07-26T14:05:17.463Z,1.25
2022-07-26T14:06:20.250Z,1.33
2022-07-26T14:07:22.972Z,1.40
2022-07-26T14:08:24.887Z,1.38
2022-07-26T14:09:27.774Z,1.20
2022-07-26T14:10:29.771Z,1.25
2022-07-26T14:11:32.827Z,1.30
2022-07-26T14:12:35.468Z,1.00
2022-07-26T14:13:37.165Z,1.23
2022-07-26T14:14:39.895Z,0.95
2022-07-26T14:15:41.507Z,1.38
2022-07-26T14:16:46.950Z,1.10